Terminal Aerodrome Forecast
Issued by NWS Melbourne, FL

Home | Current Version | Previous Version | Text Only | Print | Product List | Glossary On
Versions: 1 2 3 4 5 6 7 8 9 10 11 12 13
760
FTUS42 KMLB 262336
TAFVRB
TAF
KVRB 262336Z 2700/2724 13010KT P6SM FEW250
     FM270300 14005KT P6SM FEW250
     FM271400 15008KT P6SM SCT025 SCT250
     FM271700 13011KT P6SM VCTS SCT040CB
     FM272100 13011KT P6SM SCT040=

USA.gov is the U.S. government's official web portal to all federal, state and local government web resources and services.